sensor_id;sensor_type;location;lat;lon;timestamp;pressure;altitude;pressure_sealevel;temperature;humidity
65758;BME280;52495;52.208;5.158;2024-02-04T00:02:03;102214.22;;;9.75;100.00
65758;BME280;52495;52.208;5.158;2024-02-04T00:04:32;102215.09;;;9.77;100.00
65758;BME280;52495;52.208;5.158;2024-02-04T00:06:59;102224.56;;;9.78;100.00
65758;BME280;52495;52.208;5.158;2024-02-04T00:09:26;102211.69;;;9.77;100.00
65758;BME280;52495;52.208;5.158;2024-02-04T00:11:54;102213.34;;;9.71;100.00
65758;BME280;52495;52.208;5.158;2024-02-04T00:14:21;102208.13;;;9.65;100.00
65758;BME280;52495;52.208;5.158;2024-02-04T00:16:49;102213.25;;;9.59;100.00
65758;BME280;52495;52.208;5.158;2024-02-04T00:19:16;102204.66;;;9.62;100.00
65758;BME280;52495;52.208;5.158;2024-02-04T00:21:42;102211.50;;;9.60;100.00
65758;BME280;52495;52.208;5.158;2024-02-04T00:24:09;102208.94;;;9.60;100.00
65758;BME280;52495;52.208;5.158;2024-02-04T00:26:36;102196.00;;;9.56;100.00
65758;BME280;52495;52.208;5.158;2024-02-04T00:29:03;102208.91;;;9.56;100.00
65758;BME280;52495;52.208;5.158;2024-02-04T00:31:29;102209.75;;;9.54;100.00
65758;BME280;52495;52.208;5.158;2024-02-04T00:33:57;102205.47;;;9.56;100.00
65758;BME280;52495;52.208;5.158;2024-02-04T00:36:24;102213.16;;;9.53;100.00
65758;BME280;52495;52.208;5.158;2024-02-04T00:38:51;102208.09;;;9.59;100.00
65758;BME280;52495;52.208;5.158;2024-02-04T00:41:18;102210.63;;;9.57;100.00
65758;BME280;52495;52.208;5.158;2024-02-04T00:43:44;102203.75;;;9.56;100.00
65758;BME280;52495;52.208;5.158;2024-02-04T00:46:11;102199.47;;;9.55;100.00
65758;BME280;52495;52.208;5.158;2024-02-04T00:48:38;102198.63;;;9.60;100.00
65758;BME280;52495;52.208;5.158;2024-02-04T00:51:07;102203.78;;;9.58;100.00
65758;BME280;52495;52.208;5.158;2024-02-04T00:53:35;102209.78;;;9.57;100.00
65758;BME280;52495;52.208;5.158;2024-02-04T00:56:02;102191.72;;;9.55;100.00
65758;BME280;52495;52.208;5.158;2024-02-04T00:58:30;102194.28;;;9.52;100.00
65758;BME280;52495;52.208;5.158;2024-02-04T01:00:57;102186.53;;;9.54;100.00
65758;BME280;52495;52.208;5.158;2024-02-04T01:03:24;102195.22;;;9.62;100.00
65758;BME280;52495;52.208;5.158;2024-02-04T01:05:50;102186.56;;;9.55;100.00
65758;BME280;52495;52.208;5.158;2024-02-04T01:08:18;102192.53;;;9.51;100.00
65758;BME280;52495;52.208;5.158;2024-02-04T01:10:45;102196.81;;;9.49;100.00
65758;BME280;52495;52.208;5.158;2024-02-04T01:13:12;102188.31;;;9.60;100.00
65758;BME280;52495;52.208;5.158;2024-02-04T01:15:39;102199.50;;;9.62;100.00
65758;BME280;52495;52.208;5.158;2024-02-04T01:18:06;102191.78;;;9.63;100.00
65758;BME280;52495;52.208;5.158;2024-02-04T01:20:32;102197.75;;;9.56;100.00
65758;BME280;52495;52.208;5.158;2024-02-04T01:22:59;102183.97;;;9.52;100.00
65758;BME280;52495;52.208;5.158;2024-02-04T01:25:27;102192.63;;;9.59;100.00
65758;BME280;52495;52.208;5.158;2024-02-04T01:27:54;102195.97;;;9.50;100.00
65758;BME280;52495;52.208;5.158;2024-02-04T01:30:21;102184.78;;;9.48;100.00
65758;BME280;52495;52.208;5.158;2024-02-04T01:32:48;102195.00;;;9.39;100.00
65758;BME280;52495;52.208;5.158;2024-02-04T01:35:15;102196.63;;;9.32;100.00
65758;BME280;52495;52.208;5.158;2024-02-04T01:37:41;102184.59;;;9.28;100.00
65758;BME280;52495;52.208;5.158;2024-02-04T01:40:10;102188.91;;;9.31;100.00
65758;BME280;52495;52.208;5.158;2024-02-04T01:42:38;102176.88;;;9.30;100.00
65758;BME280;52495;52.208;5.158;2024-02-04T01:45:05;102177.78;;;9.35;100.00
65758;BME280;52495;52.208;5.158;2024-02-04T01:47:33;102186.22;;;9.20;100.00
65758;BME280;52495;52.208;5.158;2024-02-04T01:49:59;102190.59;;;9.27;100.00
65758;BME280;52495;52.208;5.158;2024-02-04T01:52:27;102193.94;;;9.18;100.00
65758;BME280;52495;52.208;5.158;2024-02-04T01:54:54;102194.84;;;9.22;100.00
65758;BME280;52495;52.208;5.158;2024-02-04T01:57:21;102187.91;;;9.16;100.00
65758;BME280;52495;52.208;5.158;2024-02-04T01:59:49;102192.19;;;9.14;100.00
65758;BME280;52495;52.208;5.158;2024-02-04T02:02:17;102187.91;;;9.18;100.00
65758;BME280;52495;52.208;5.158;2024-02-04T02:04:46;102201.63;;;9.14;100.00
65758;BME280;52495;52.208;5.158;2024-02-04T02:07:13;102205.03;;;9.09;100.00
65758;BME280;52495;52.208;5.158;2024-02-04T02:09:42;102205.91;;;9.11;100.00
65758;BME280;52495;52.208;5.158;2024-02-04T02:12:11;102204.13;;;9.07;100.00
65758;BME280;52495;52.208;5.158;2024-02-04T02:14:42;102208.44;;;9.08;100.00
65758;BME280;52495;52.208;5.158;2024-02-04T02:17:12;102198.97;;;9.09;100.00
65758;BME280;52495;52.208;5.158;2024-02-04T02:19:46;102190.41;;;9.10;100.00
65758;BME280;52495;52.208;5.158;2024-02-04T02:22:25;102182.72;;;9.11;100.00
65758;BME280;52495;52.208;5.158;2024-02-04T02:24:56;102179.22;;;9.05;100.00
65758;BME280;52495;52.208;5.158;2024-02-04T02:27:23;102184.41;;;9.11;100.00
65758;BME280;52495;52.208;5.158;2024-02-04T02:29:49;102182.72;;;9.11;100.00
65758;BME280;52495;52.208;5.158;2024-02-04T02:32:17;102183.59;;;9.17;100.00
65758;BME280;52495;52.208;5.158;2024-02-04T02:34:44;102179.25;;;9.11;100.00
65758;BME280;52495;52.208;5.158;2024-02-04T02:37:20;102189.59;;;9.16;100.00
65758;BME280;52495;52.208;5.158;2024-02-04T02:39:52;102187.88;;;9.13;100.00
65758;BME280;52495;52.208;5.158;2024-02-04T02:42:23;102188.63;;;9.06;100.00
65758;BME280;52495;52.208;5.158;2024-02-04T02:44:50;102189.47;;;9.02;100.00
65758;BME280;52495;52.208;5.158;2024-02-04T02:47:19;102182.63;;;9.05;100.00
65758;BME280;52495;52.208;5.158;2024-02-04T02:49:47;102181.84;;;9.11;100.00
65758;BME280;52495;52.208;5.158;2024-02-04T02:52:14;102184.47;;;9.17;100.00
65758;BME280;52495;52.208;5.158;2024-02-04T02:54:40;102187.91;;;9.16;100.00
65758;BME280;52495;52.208;5.158;2024-02-04T02:57:07;102186.19;;;9.17;100.00
65758;BME280;52495;52.208;5.158;2024-02-04T02:59:35;102187.03;;;9.13;100.00
65758;BME280;52495;52.208;5.158;2024-02-04T03:02:02;102187.91;;;9.16;100.00
65758;BME280;52495;52.208;5.158;2024-02-04T03:04:28;102188.75;;;9.15;100.00
65758;BME280;52495;52.208;5.158;2024-02-04T03:06:55;102182.72;;;9.15;100.00
65758;BME280;52495;52.208;5.158;2024-02-04T03:09:22;102187.03;;;9.13;100.00
65758;BME280;52495;52.208;5.158;2024-02-04T03:11:49;102186.09;;;9.07;100.00
65758;BME280;52495;52.208;5.158;2024-02-04T03:14:16;102187.81;;;9.08;100.00
65758;BME280;52495;52.208;5.158;2024-02-04T03:16:44;102185.28;;;9.13;100.00
65758;BME280;52495;52.208;5.158;2024-02-04T03:19:11;102179.22;;;9.08;100.00
65758;BME280;52495;52.208;5.158;2024-02-04T03:21:38;102181.00;;;9.12;100.00
65758;BME280;52495;52.208;5.158;2024-02-04T03:24:05;102181.88;;;9.14;100.00
65758;BME280;52495;52.208;5.158;2024-02-04T03:26:32;102165.50;;;9.09;100.00
65758;BME280;52495;52.208;5.158;2024-02-04T03:28:59;102156.94;;;9.11;100.00
65758;BME280;52495;52.208;5.158;2024-02-04T03:31:25;102173.19;;;9.06;100.00
65758;BME280;52495;52.208;5.158;2024-02-04T03:33:54;102174.91;;;9.05;100.00
65758;BME280;52495;52.208;5.158;2024-02-04T03:36:22;102161.94;;;8.99;100.00
65758;BME280;52495;52.208;5.158;2024-02-04T03:38:49;102169.69;;;8.99;100.00
65758;BME280;52495;52.208;5.158;2024-02-04T03:41:16;102179.94;;;8.94;100.00
65758;BME280;52495;52.208;5.158;2024-02-04T03:43:43;102178.25;;;8.95;100.00
65758;BME280;52495;52.208;5.158;2024-02-04T03:46:13;102180.75;;;8.90;100.00
65758;BME280;52495;52.208;5.158;2024-02-04T03:48:39;102183.31;;;8.87;100.00
65758;BME280;52495;52.208;5.158;2024-02-04T03:51:07;102190.16;;;8.88;100.00
65758;BME280;52495;52.208;5.158;2024-02-04T03:53:34;102194.50;;;8.91;100.00
65758;BME280;52495;52.208;5.158;2024-02-04T03:56:01;102184.19;;;8.91;100.00
65758;BME280;52495;52.208;5.158;2024-02-04T03:58:28;102183.34;;;8.93;100.00
65758;BME280;52495;52.208;5.158;2024-02-04T04:00:56;102183.09;;;8.72;100.00
65758;BME280;52495;52.208;5.158;2024-02-04T04:03:22;102183.97;;;8.74;100.00
65758;BME280;52495;52.208;5.158;2024-02-04T04:05:49;102184.81;;;8.73;100.00
65758;BME280;52495;52.208;5.158;2024-02-04T04:08:18;102183.22;;;8.79;100.00
65758;BME280;52495;52.208;5.158;2024-02-04T04:10:45;102177.22;;;8.82;100.00
65758;BME280;52495;52.208;5.158;2024-02-04T04:13:11;102168.63;;;8.80;100.00
65758;BME280;52495;52.208;5.158;2024-02-04T04:15:38;102154.91;;;8.81;100.00
65758;BME280;52495;52.208;5.158;2024-02-04T04:18:06;102152.31;;;8.79;100.00
65758;BME280;52495;52.208;5.158;2024-02-04T04:20:33;102162.66;;;8.84;100.00
65758;BME280;52495;52.208;5.158;2024-02-04T04:22:59;102162.69;;;8.87;100.00
65758;BME280;52495;52.208;5.158;2024-02-04T04:25:27;102159.25;;;8.87;100.00
65758;BME280;52495;52.208;5.158;2024-02-04T04:27:54;102154.97;;;8.90;100.00
65758;BME280;52495;52.208;5.158;2024-02-04T04:30:23;102148.94;;;8.88;100.00
65758;BME280;52495;52.208;5.158;2024-02-04T04:32:50;102156.69;;;8.88;100.00
65758;BME280;52495;52.208;5.158;2024-02-04T04:35:17;102145.41;;;8.75;100.00
65758;BME280;52495;52.208;5.158;2024-02-04T04:37:43;102147.22;;;8.86;100.00
65758;BME280;52495;52.208;5.158;2024-02-04T04:40:11;102152.41;;;8.87;100.00
65758;BME280;52495;52.208;5.158;2024-02-04T04:42:39;102141.22;;;8.87;100.00
65758;BME280;52495;52.208;5.158;2024-02-04T04:45:07;102137.78;;;8.88;100.00
65758;BME280;52495;52.208;5.158;2024-02-04T04:47:34;102129.22;;;8.89;100.00
65758;BME280;52495;52.208;5.158;2024-02-04T04:50:01;102130.91;;;8.88;100.00
65758;BME280;52495;52.208;5.158;2024-02-04T04:52:28;102129.19;;;8.86;100.00
65758;BME280;52495;52.208;5.158;2024-02-04T04:54:54;102130.03;;;8.83;100.00
65758;BME280;52495;52.208;5.158;2024-02-04T04:57:21;102115.44;;;8.84;100.00
65758;BME280;52495;52.208;5.158;2024-02-04T04:59:49;102111.16;;;8.86;100.00
65758;BME280;52495;52.208;5.158;2024-02-04T05:02:16;102124.94;;;8.89;100.00
65758;BME280;52495;52.208;5.158;2024-02-04T05:04:43;102114.66;;;8.91;100.00
65758;BME280;52495;52.208;5.158;2024-02-04T05:07:10;102106.09;;;8.93;100.00
65758;BME280;52495;52.208;5.158;2024-02-04T05:09:37;102102.66;;;8.93;100.00
65758;BME280;52495;52.208;5.158;2024-02-04T05:12:04;102110.38;;;8.94;100.00
65758;BME280;52495;52.208;5.158;2024-02-04T05:14:30;102100.09;;;8.94;100.00
65758;BME280;52495;52.208;5.158;2024-02-04T05:16:58;102122.44;;;8.95;100.00
65758;BME280;52495;52.208;5.158;2024-02-04T05:19:25;102125.88;;;8.96;100.00
65758;BME280;52495;52.208;5.158;2024-02-04T05:21:52;102134.47;;;8.96;100.00
65758;BME280;52495;52.208;5.158;2024-02-04T05:24:18;102126.72;;;8.96;100.00
65758;BME280;52495;52.208;5.158;2024-02-04T05:26:45;102115.56;;;8.96;100.00
65758;BME280;52495;52.208;5.158;2024-02-04T05:29:12;102108.69;;;8.95;100.00
65758;BME280;52495;52.208;5.158;2024-02-04T05:31:40;102100.94;;;8.92;100.00
65758;BME280;52495;52.208;5.158;2024-02-04T05:34:09;102105.28;;;8.96;100.00
65758;BME280;52495;52.208;5.158;2024-02-04T05:36:36;102095.81;;;8.95;100.00
65758;BME280;52495;52.208;5.158;2024-02-04T05:39:09;102086.38;;;8.97;100.00
65758;BME280;52495;52.208;5.158;2024-02-04T05:41:37;102096.69;;;8.99;100.00
65758;BME280;52495;52.208;5.158;2024-02-04T05:44:04;102097.53;;;8.98;100.00
65758;BME280;52495;52.208;5.158;2024-02-04T05:46:31;102105.25;;;8.94;100.00
65758;BME280;52495;52.208;5.158;2024-02-04T05:48:57;102107.84;;;8.96;100.00
65758;BME280;52495;52.208;5.158;2024-02-04T05:51:25;102105.19;;;8.91;100.00
65758;BME280;52495;52.208;5.158;2024-02-04T05:53:52;102106.13;;;8.95;100.00
65758;BME280;52495;52.208;5.158;2024-02-04T05:56:19;102099.16;;;8.88;100.00
65758;BME280;52495;52.208;5.158;2024-02-04T05:58:46;102082.91;;;8.93;100.00
65758;BME280;52495;52.208;5.158;2024-02-04T06:01:15;102079.47;;;8.93;100.00
65758;BME280;52495;52.208;5.158;2024-02-04T06:03:42;102082.03;;;8.91;100.00
65758;BME280;52495;52.208;5.158;2024-02-04T06:06:09;102082.06;;;8.93;100.00
65758;BME280;52495;52.208;5.158;2024-02-04T06:08:37;102082.03;;;8.91;100.00
65758;BME280;52495;52.208;5.158;2024-02-04T06:11:04;102082.03;;;8.90;100.00
65758;BME280;52495;52.208;5.158;2024-02-04T06:13:31;102074.28;;;8.90;100.00
65758;BME280;52495;52.208;5.158;2024-02-04T06:15:57;102059.72;;;8.92;100.00
65758;BME280;52495;52.208;5.158;2024-02-04T06:18:24;102072.63;;;8.95;100.00
65758;BME280;52495;52.208;5.158;2024-02-04T06:20:50;102067.47;;;8.95;100.00
65758;BME280;52495;52.208;5.158;2024-02-04T06:23:17;102057.19;;;8.95;100.00
65758;BME280;52495;52.208;5.158;2024-02-04T06:25:46;102063.22;;;8.99;100.00
65758;BME280;52495;52.208;5.158;2024-02-04T06:28:13;102058.91;;;8.99;100.00
65758;BME280;52495;52.208;5.158;2024-02-04T06:30:40;102049.50;;;9.00;100.00
65758;BME280;52495;52.208;5.158;2024-02-04T06:33:06;102057.25;;;9.03;100.00
65758;BME280;52495;52.208;5.158;2024-02-04T06:35:33;102063.28;;;9.05;100.00
65758;BME280;52495;52.208;5.158;2024-02-04T06:38:00;102048.66;;;9.04;100.00
65758;BME280;52495;52.208;5.158;2024-02-04T06:40:26;102063.28;;;9.05;100.00
65758;BME280;52495;52.208;5.158;2024-02-04T06:42:55;102061.56;;;9.07;100.00
65758;BME280;52495;52.208;5.158;2024-02-04T06:45:21;102054.66;;;9.06;100.00
65758;BME280;52495;52.208;5.158;2024-02-04T06:47:48;102058.09;;;9.03;100.00
65758;BME280;52495;52.208;5.158;2024-02-04T06:50:15;102060.72;;;9.08;100.00
65758;BME280;52495;52.208;5.158;2024-02-04T06:52:43;102053.84;;;9.10;100.00
65758;BME280;52495;52.208;5.158;2024-02-04T06:55:11;102065.03;;;9.12;100.00
65758;BME280;52495;52.208;5.158;2024-02-04T06:57:37;102059.88;;;9.12;100.00
65758;BME280;52495;52.208;5.158;2024-02-04T07:00:07;102053.03;;;9.16;100.00
65758;BME280;52495;52.208;5.158;2024-02-04T07:02:34;102033.34;;;9.19;100.00
65758;BME280;52495;52.208;5.158;2024-02-04T07:05:01;102041.91;;;9.18;100.00
65758;BME280;52495;52.208;5.158;2024-02-04T07:07:27;102040.22;;;9.22;100.00
65758;BME280;52495;52.208;5.158;2024-02-04T07:09:54;102043.63;;;9.22;100.00
65758;BME280;52495;52.208;5.158;2024-02-04T07:12:21;102034.22;;;9.24;100.00
65758;BME280;52495;52.208;5.158;2024-02-04T07:14:48;102017.94;;;9.27;100.00
65758;BME280;52495;52.208;5.158;2024-02-04T07:17:16;102028.25;;;9.32;100.00
65758;BME280;52495;52.208;5.158;2024-02-04T07:19:42;102036.84;;;9.31;100.00
65758;BME280;52495;52.208;5.158;2024-02-04T07:22:09;102038.56;;;9.32;100.00
65758;BME280;52495;52.208;5.158;2024-02-04T07:24:36;102032.56;;;9.34;100.00
65758;BME280;52495;52.208;5.158;2024-02-04T07:27:03;102046.34;;;9.35;100.00
65758;BME280;52495;52.208;5.158;2024-02-04T07:29:30;102042.06;;;9.37;100.00
65758;BME280;52495;52.208;5.158;2024-02-04T07:31:56;102049.78;;;9.38;100.00
65758;BME280;52495;52.208;5.158;2024-02-04T07:34:25;102052.38;;;9.37;100.00
65758;BME280;52495;52.208;5.158;2024-02-04T07:36:52;102055.75;;;9.30;100.00
65758;BME280;52495;52.208;5.158;2024-02-04T07:39:18;102051.50;;;9.35;100.00
65758;BME280;52495;52.208;5.158;2024-02-04T07:41:45;102064.41;;;9.38;100.00
65758;BME280;52495;52.208;5.158;2024-02-04T07:44:13;102043.78;;;9.38;100.00
65758;BME280;52495;52.208;5.158;2024-02-04T07:46:39;102060.09;;;9.40;100.00
65758;BME280;52495;52.208;5.158;2024-02-04T07:49:06;102054.97;;;9.43;100.00
65758;BME280;52495;52.208;5.158;2024-02-04T07:51:34;102045.56;;;9.47;100.00
65758;BME280;52495;52.208;5.158;2024-02-04T07:54:03;102045.59;;;9.51;100.00
65758;BME280;52495;52.208;5.158;2024-02-04T07:56:30;102045.59;;;9.53;100.00
65758;BME280;52495;52.208;5.158;2024-02-04T07:58:56;102048.19;;;9.56;100.00
65758;BME280;52495;52.208;5.158;2024-02-04T08:01:23;102042.19;;;9.55;100.00
65758;BME280;52495;52.208;5.158;2024-02-04T08:03:50;102044.72;;;9.49;100.00
65758;BME280;52495;52.208;5.158;2024-02-04T08:06:17;102039.59;;;9.52;100.00
65758;BME280;52495;52.208;5.158;2024-02-04T08:08:45;102041.25;;;9.49;100.00
65758;BME280;52495;52.208;5.158;2024-02-04T08:11:16;102037.88;;;9.54;100.00
65758;BME280;52495;52.208;5.158;2024-02-04T08:13:43;102037.03;;;9.59;100.00
65758;BME280;52495;52.208;5.158;2024-02-04T08:16:10;102028.44;;;9.60;100.00
65758;BME280;52495;52.208;5.158;2024-02-04T08:18:37;102041.34;;;9.61;100.00
65758;BME280;52495;52.208;5.158;2024-02-04T08:21:04;102025.88;;;9.61;100.00
65758;BME280;52495;52.208;5.158;2024-02-04T08:23:31;102030.19;;;9.62;100.00
65758;BME280;52495;52.208;5.158;2024-02-04T08:26:00;102028.47;;;9.61;100.00
65758;BME280;52495;52.208;5.158;2024-02-04T08:28:26;102033.66;;;9.64;100.00
65758;BME280;52495;52.208;5.158;2024-02-04T08:30:53;102031.91;;;9.65;100.00
65758;BME280;52495;52.208;5.158;2024-02-04T08:33:19;102040.47;;;9.61;100.00
65758;BME280;52495;52.208;5.158;2024-02-04T08:35:46;102033.63;;;9.67;100.00
65758;BME280;52495;52.208;5.158;2024-02-04T08:38:13;102033.63;;;9.67;100.00
65758;BME280;52495;52.208;5.158;2024-02-04T08:40:40;102033.63;;;9.67;100.00
65758;BME280;52495;52.208;5.158;2024-02-04T08:43:08;102025.03;;;9.65;100.00
65758;BME280;52495;52.208;5.158;2024-02-04T08:45:34;102018.19;;;9.69;100.00
65758;BME280;52495;52.208;5.158;2024-02-04T08:48:01;102001.84;;;9.68;100.00
65758;BME280;52495;52.208;5.158;2024-02-04T08:50:28;102007.91;;;9.72;100.00
65758;BME280;52495;52.208;5.158;2024-02-04T08:52:55;102007.88;;;9.70;100.00
65758;BME280;52495;52.208;5.158;2024-02-04T08:55:22;102015.56;;;9.63;100.00
65758;BME280;52495;52.208;5.158;2024-02-04T08:57:48;102023.34;;;9.69;100.00
65758;BME280;52495;52.208;5.158;2024-02-04T09:00:17;102007.88;;;9.70;100.00
65758;BME280;52495;52.208;5.158;2024-02-04T09:02:45;102012.19;;;9.76;100.00
65758;BME280;52495;52.208;5.158;2024-02-04T09:05:12;102001.88;;;9.76;100.00
65758;BME280;52495;52.208;5.158;2024-02-04T09:07:40;102007.03;;;9.76;100.00
65758;BME280;52495;52.208;5.158;2024-02-04T09:10:07;102006.22;;;9.80;100.00
65758;BME280;52495;52.208;5.158;2024-02-04T09:12:34;102015.69;;;9.84;100.00
65758;BME280;52495;52.208;5.158;2024-02-04T09:15:01;102018.28;;;9.89;100.00
65758;BME280;52495;52.208;5.158;2024-02-04T09:17:30;102024.31;;;9.93;100.00
65758;BME280;52495;52.208;5.158;2024-02-04T09:19:58;102034.66;;;9.99;100.00
65758;BME280;52495;52.208;5.158;2024-02-04T09:22:25;102030.38;;;9.96;100.00
65758;BME280;52495;52.208;5.158;2024-02-04T09:24:52;102032.09;;;9.97;100.00
65758;BME280;52495;52.208;5.158;2024-02-04T09:27:18;102036.41;;;10.03;100.00
65758;BME280;52495;52.208;5.158;2024-02-04T09:29:45;102020.94;;;10.09;100.00
65758;BME280;52495;52.208;5.158;2024-02-04T09:32:12;102025.28;;;10.12;100.00
65758;BME280;52495;52.208;5.158;2024-02-04T09:34:40;102035.59;;;10.13;100.00
65758;BME280;52495;52.208;5.158;2024-02-04T09:37:07;102020.97;;;10.15;100.00
65758;BME280;52495;52.208;5.158;2024-02-04T09:39:34;102025.31;;;10.23;100.00
65758;BME280;52495;52.208;5.158;2024-02-04T09:42:01;102020.16;;;10.23;100.00
65758;BME280;52495;52.208;5.158;2024-02-04T09:44:27;102014.97;;;10.21;100.00
65758;BME280;52495;52.208;5.158;2024-02-04T09:46:54;102022.72;;;10.23;100.00
65758;BME280;52495;52.208;5.158;2024-02-04T09:49:24;102014.13;;;10.24;100.00
65758;BME280;52495;52.208;5.158;2024-02-04T09:51:54;102017.56;;;10.26;100.00
65758;BME280;52495;52.208;5.158;2024-02-04T09:54:22;102019.31;;;10.30;100.00
65758;BME280;52495;52.208;5.158;2024-02-04T09:56:51;102019.31;;;10.30;100.00
65758;BME280;52495;52.208;5.158;2024-02-04T09:59:18;102012.44;;;10.32;100.00
65758;BME280;52495;52.208;5.158;2024-02-04T10:01:45;102015.88;;;10.34;100.00
65758;BME280;52495;52.208;5.158;2024-02-04T10:04:13;102023.63;;;10.36;100.00
65758;BME280;52495;52.208;5.158;2024-02-04T10:06:40;102027.06;;;10.36;100.00
65758;BME280;52495;52.208;5.158;2024-02-04T10:09:08;102015.03;;;10.35;100.00
65758;BME280;52495;52.208;5.158;2024-02-04T10:11:35;102011.56;;;10.31;100.00
65758;BME280;52495;52.208;5.158;2024-02-04T10:14:03;102009.03;;;10.42;100.00
65758;BME280;52495;52.208;5.158;2024-02-04T10:16:30;102015.03;;;10.35;100.00
65758;BME280;52495;52.208;5.158;2024-02-04T10:18:57;102015.06;;;10.40;100.00
65758;BME280;52495;52.208;5.158;2024-02-04T10:21:23;102002.16;;;10.41;100.00
65758;BME280;52495;52.208;5.158;2024-02-04T10:23:50;102008.19;;;10.40;100.00
65758;BME280;52495;52.208;5.158;2024-02-04T10:26:19;102013.34;;;10.43;100.00
65758;BME280;52495;52.208;5.158;2024-02-04T10:28:47;102015.94;;;10.50;100.00
65758;BME280;52495;52.208;5.158;2024-02-04T10:31:14;102014.19;;;10.45;100.00
65758;BME280;52495;52.208;5.158;2024-02-04T10:33:40;102014.22;;;10.48;100.00
65758;BME280;52495;52.208;5.158;2024-02-04T10:36:07;102029.69;;;10.45;100.00
65758;BME280;52495;52.208;5.158;2024-02-04T10:38:34;102025.41;;;10.49;100.00
65758;BME280;52495;52.208;5.158;2024-02-04T10:41:01;102029.72;;;10.48;100.00
65758;BME280;52495;52.208;5.158;2024-02-04T10:43:31;102033.16;;;10.49;100.00
65758;BME280;52495;52.208;5.158;2024-02-04T10:46:01;102022.84;;;10.54;100.00
65758;BME280;52495;52.208;5.158;2024-02-04T10:48:29;102034.03;;;10.53;100.00
65758;BME280;52495;52.208;5.158;2024-02-04T10:50:58;102039.16;;;10.51;100.00
65758;BME280;52495;52.208;5.158;2024-02-04T10:53:25;102028.84;;;10.54;100.00
65758;BME280;52495;52.208;5.158;2024-02-04T10:55:54;102033.16;;;10.55;100.00
65758;BME280;52495;52.208;5.158;2024-02-04T10:58:25;102036.59;;;10.51;100.00
65758;BME280;52495;52.208;5.158;2024-02-04T11:00:53;102035.75;;;10.54;100.00
65758;BME280;52495;52.208;5.158;2024-02-04T11:03:21;102032.31;;;10.55;100.00
65758;BME280;52495;52.208;5.158;2024-02-04T11:05:52;102025.41;;;10.52;100.00
65758;BME280;52495;52.208;5.158;2024-02-04T11:08:21;102026.25;;;10.46;100.00
65758;BME280;52495;52.208;5.158;2024-02-04T11:10:48;102031.41;;;10.46;100.00
65758;BME280;52495;52.208;5.158;2024-02-04T11:13:15;102030.53;;;10.40;100.00
65758;BME280;52495;52.208;5.158;2024-02-04T11:15:43;102041.69;;;10.31;100.00
65758;BME280;52495;52.208;5.158;2024-02-04T11:18:29;102040.78;;;10.24;100.00
65758;BME280;52495;52.208;5.158;2024-02-04T11:21:07;102045.09;;;10.21;100.00
65758;BME280;52495;52.208;5.158;2024-02-04T11:23:46;102029.59;;;10.17;100.00
65758;BME280;52495;52.208;5.158;2024-02-04T11:26:17;102034.75;;;10.13;100.00
65758;BME280;52495;52.208;5.158;2024-02-04T11:28:45;102020.97;;;10.11;100.00
65758;BME280;52495;52.208;5.158;2024-02-04T11:31:15;102025.19;;;9.99;100.00
65758;BME280;52495;52.208;5.158;2024-02-04T11:33:45;102020.06;;;10.06;100.00
65758;BME280;52495;52.208;5.158;2024-02-04T11:36:13;102011.47;;;10.02;100.00
65758;BME280;52495;52.208;5.158;2024-02-04T11:38:40;102020.06;;;10.02;100.00
65758;BME280;52495;52.208;5.158;2024-02-04T11:41:07;102009.75;;;10.01;100.00
65758;BME280;52495;52.208;5.158;2024-02-04T11:43:35;102010.59;;;9.95;100.00
65758;BME280;52495;52.208;5.158;2024-02-04T11:46:03;102005.44;;;10.00;100.00
65758;BME280;52495;52.208;5.158;2024-02-04T11:48:32;102011.44;;;9.99;100.00
65758;BME280;52495;52.208;5.158;2024-02-04T11:51:00;102009.75;;;10.01;100.00
65758;BME280;52495;52.208;5.158;2024-02-04T11:53:27;102003.72;;;10.00;100.00
65758;BME280;52495;52.208;5.158;2024-02-04T11:55:57;102000.25;;;9.97;100.00
65758;BME280;52495;52.208;5.158;2024-02-04T11:58:25;101987.38;;;10.00;100.00
65758;BME280;52495;52.208;5.158;2024-02-04T12:00:52;101993.41;;;9.97;100.00
65758;BME280;52495;52.208;5.158;2024-02-04T12:03:28;101987.41;;;10.03;100.00
65758;BME280;52495;52.208;5.158;2024-02-04T12:05:55;101981.38;;;10.04;100.00
65758;BME280;52495;52.208;5.158;2024-02-04T12:08:24;101977.06;;;10.01;100.00
65758;BME280;52495;52.208;5.158;2024-02-04T12:10:52;101969.34;;;10.06;100.00
65758;BME280;52495;52.208;5.158;2024-02-04T12:13:19;101972.78;;;10.10;100.00
65758;BME280;52495;52.208;5.158;2024-02-04T12:15:47;101968.50;;;10.12;100.00
65758;BME280;52495;52.208;5.158;2024-02-04T12:18:14;101971.97;;;10.18;100.00
65758;BME280;52495;52.208;5.158;2024-02-04T12:20:46;101966.78;;;10.18;100.00
65758;BME280;52495;52.208;5.158;2024-02-04T12:23:13;101959.03;;;10.25;100.00
65758;BME280;52495;52.208;5.158;2024-02-04T12:25:41;101951.34;;;10.29;100.00
65758;BME280;52495;52.208;5.158;2024-02-04T12:28:08;101962.50;;;10.30;100.00
65758;BME280;52495;52.208;5.158;2024-02-04T12:30:35;101962.53;;;10.36;100.00
65758;BME280;52495;52.208;5.158;2024-02-04T12:33:03;101950.47;;;10.35;100.00
65758;BME280;52495;52.208;5.158;2024-02-04T12:35:31;101969.41;;;10.37;100.00
65758;BME280;52495;52.208;5.158;2024-02-04T12:37:59;101971.09;;;10.33;100.00
65758;BME280;52495;52.208;5.158;2024-02-04T12:40:26;101965.97;;;10.37;100.00
65758;BME280;52495;52.208;5.158;2024-02-04T12:42:55;101967.69;;;10.33;100.00
65758;BME280;52495;52.208;5.158;2024-02-04T12:45:22;101953.94;;;10.39;100.00
65758;BME280;52495;52.208;5.158;2024-02-04T12:47:50;101961.72;;;10.40;100.00
65758;BME280;52495;52.208;5.158;2024-02-04T12:50:16;101953.94;;;10.43;100.00